sensor_id;sensor_type;location;lat;lon;timestamp;temperature;humidity
30865;DHT22;17574;49.418;11.038;2023-04-24T00:02:41;11.80;92.00
30865;DHT22;17574;49.418;11.038;2023-04-24T00:07:39;11.80;92.10
30865;DHT22;17574;49.418;11.038;2023-04-24T00:12:32;11.80;92.00
30865;DHT22;17574;49.418;11.038;2023-04-24T00:29:48;11.90;92.90
30865;DHT22;17574;49.418;11.038;2023-04-24T01:16:25;11.80;92.00
30865;DHT22;17574;49.418;11.038;2023-04-24T01:36:02;11.60;92.00
30865;DHT22;17574;49.418;11.038;2023-04-24T01:38:29;11.60;92.00
30865;DHT22;17574;49.418;11.038;2023-04-24T02:32:29;11.40;90.70
30865;DHT22;17574;49.418;11.038;2023-04-24T02:34:57;11.40;90.80
30865;DHT22;17574;49.418;11.038;2023-04-24T02:39:51;11.40;90.50
30865;DHT22;17574;49.418;11.038;2023-04-24T02:42:18;11.20;91.60
30865;DHT22;17574;49.418;11.038;2023-04-24T02:44:44;11.20;91.80
30865;DHT22;17574;49.418;11.038;2023-04-24T02:47:11;11.20;92.80
30865;DHT22;17574;49.418;11.038;2023-04-24T02:49:37;11.20;92.60
30865;DHT22;17574;49.418;11.038;2023-04-24T02:52:04;11.20;91.80
30865;DHT22;17574;49.418;11.038;2023-04-24T02:54:31;11.20;91.50
30865;DHT22;17574;49.418;11.038;2023-04-24T02:56:57;11.20;91.80
30865;DHT22;17574;49.418;11.038;2023-04-24T02:59:24;11.20;91.80
30865;DHT22;17574;49.418;11.038;2023-04-24T03:01:51;11.20;91.50
30865;DHT22;17574;49.418;11.038;2023-04-24T03:04:17;11.20;90.70
30865;DHT22;17574;49.418;11.038;2023-04-24T03:06:46;11.20;90.50
30865;DHT22;17574;49.418;11.038;2023-04-24T03:16:34;11.30;89.60
30865;DHT22;17574;49.418;11.038;2023-04-24T03:21:28;11.20;90.00
30865;DHT22;17574;49.418;11.038;2023-04-24T03:23:55;11.30;90.10
30865;DHT22;17574;49.418;11.038;2023-04-24T03:28:49;11.20;90.20
30865;DHT22;17574;49.418;11.038;2023-04-24T04:08:08;11.20;91.10
30865;DHT22;17574;49.418;11.038;2023-04-24T04:15:29;11.10;90.50
30865;DHT22;17574;49.418;11.038;2023-04-24T05:53:50;12.00;85.20
30865;DHT22;17574;49.418;11.038;2023-04-24T05:56:17;12.10;81.80
30865;DHT22;17574;49.418;11.038;2023-04-24T05:58:44;12.10;82.20
30865;DHT22;17574;49.418;11.038;2023-04-24T06:01:12;12.30;84.70
30865;DHT22;17574;49.418;11.038;2023-04-24T06:03:38;12.40;81.80
30865;DHT22;17574;49.418;11.038;2023-04-24T06:06:06;12.50;79.80
30865;DHT22;17574;49.418;11.038;2023-04-24T06:11:00;12.70;72.20
30865;DHT22;17574;49.418;11.038;2023-04-24T06:13:29;12.80;72.30
30865;DHT22;17574;49.418;11.038;2023-04-24T06:15:56;12.70;73.50
30865;DHT22;17574;49.418;11.038;2023-04-24T06:20:50;12.80;71.80
30865;DHT22;17574;49.418;11.038;2023-04-24T06:23:16;12.80;71.70
30865;DHT22;17574;49.418;11.038;2023-04-24T06:25:43;12.80;70.90
30865;DHT22;17574;49.418;11.038;2023-04-24T06:28:10;12.80;70.90
30865;DHT22;17574;49.418;11.038;2023-04-24T06:35:44;12.90;71.00
30865;DHT22;17574;49.418;11.038;2023-04-24T06:38:11;12.90;71.00
30865;DHT22;17574;49.418;11.038;2023-04-24T06:52:53;13.10;57.50
30865;DHT22;17574;49.418;11.038;2023-04-24T06:55:20;13.10;54.20
30865;DHT22;17574;49.418;11.038;2023-04-24T07:05:08;13.40;49.30
30865;DHT22;17574;49.418;11.038;2023-04-24T07:07:34;13.40;47.10
30865;DHT22;17574;49.418;11.038;2023-04-24T07:10:04;13.50;47.20
30865;DHT22;17574;49.418;11.038;2023-04-24T07:12:31;13.60;46.70
30865;DHT22;17574;49.418;11.038;2023-04-24T07:14:58;13.90;37.70
30865;DHT22;17574;49.418;11.038;2023-04-24T07:17:25;14.00;31.00
30865;DHT22;17574;49.418;11.038;2023-04-24T07:19:52;16.50;29.80
30865;DHT22;17574;49.418;11.038;2023-04-24T07:22:18;14.20;24.80
30865;DHT22;17574;49.418;11.038;2023-04-24T07:24:45;14.30;19.60
30865;DHT22;17574;49.418;11.038;2023-04-24T07:27:12;14.40;20.30
30865;DHT22;17574;49.418;11.038;2023-04-24T07:29:41;14.50;13.30
30865;DHT22;17574;49.418;11.038;2023-04-24T07:32:08;14.40;13.60
30865;DHT22;17574;49.418;11.038;2023-04-24T07:34:35;14.30;13.20
30865;DHT22;17574;49.418;11.038;2023-04-24T07:37:02;14.40;10.80
30865;DHT22;17574;49.418;11.038;2023-04-24T07:39:29;14.50;10.00
30865;DHT22;17574;49.418;11.038;2023-04-24T07:41:56;14.40;12.20
30865;DHT22;17574;49.418;11.038;2023-04-24T07:44:23;14.50;5.80
30865;DHT22;17574;49.418;11.038;2023-04-24T07:46:49;14.40;7.20
30865;DHT22;17574;49.418;11.038;2023-04-24T07:49:16;14.40;8.40
30865;DHT22;17574;49.418;11.038;2023-04-24T07:51:45;14.60;8.50
30865;DHT22;17574;49.418;11.038;2023-04-24T07:54:12;14.90;5.50
30865;DHT22;17574;49.418;11.038;2023-04-24T07:56:38;15.20;3.50
30865;DHT22;17574;49.418;11.038;2023-04-24T07:59:06;15.50;1.00
30865;DHT22;17574;49.418;11.038;2023-04-24T08:01:32;15.70;1.00
30865;DHT22;17574;49.418;11.038;2023-04-24T08:03:59;16.30;1.00
30865;DHT22;17574;49.418;11.038;2023-04-24T08:06:26;16.60;1.00
30865;DHT22;17574;49.418;11.038;2023-04-24T08:08:57;17.10;1.00
30865;DHT22;17574;49.418;11.038;2023-04-24T08:11:24;17.30;1.00
30865;DHT22;17574;49.418;11.038;2023-04-24T08:13:50;14.10;1.00
30865;DHT22;17574;49.418;11.038;2023-04-24T08:16:17;17.10;1.00
30865;DHT22;17574;49.418;11.038;2023-04-24T08:18:44;17.30;1.00
30865;DHT22;17574;49.418;11.038;2023-04-24T08:21:10;17.40;1.00
30865;DHT22;17574;49.418;11.038;2023-04-24T08:23:39;17.40;1.00
30865;DHT22;17574;49.418;11.038;2023-04-24T08:26:05;17.30;1.00
30865;DHT22;17574;49.418;11.038;2023-04-24T08:28:33;17.20;1.00
30865;DHT22;17574;49.418;11.038;2023-04-24T08:31:00;16.90;1.00
30865;DHT22;17574;49.418;11.038;2023-04-24T08:33:27;17.00;1.00
30865;DHT22;17574;49.418;11.038;2023-04-24T08:35:59;19.70;1.00
30865;DHT22;17574;49.418;11.038;2023-04-24T08:38:27;17.40;1.00
30865;DHT22;17574;49.418;11.038;2023-04-24T08:40:53;17.90;1.00
30865;DHT22;17574;49.418;11.038;2023-04-24T08:43:21;18.50;1.00
30865;DHT22;17574;49.418;11.038;2023-04-24T08:45:48;18.80;1.00
30865;DHT22;17574;49.418;11.038;2023-04-24T08:48:15;18.90;1.00
30865;DHT22;17574;49.418;11.038;2023-04-24T08:50:57;18.70;1.00
30865;DHT22;17574;49.418;11.038;2023-04-24T08:53:24;18.70;1.00
30865;DHT22;17574;49.418;11.038;2023-04-24T08:55:51;18.80;1.00
30865;DHT22;17574;49.418;11.038;2023-04-24T08:58:19;18.60;1.00
30865;DHT22;17574;49.418;11.038;2023-04-24T09:00:46;18.70;1.00
30865;DHT22;17574;49.418;11.038;2023-04-24T09:03:15;18.30;1.00
30865;DHT22;17574;49.418;11.038;2023-04-24T09:05:46;18.10;1.00
30865;DHT22;17574;49.418;11.038;2023-04-24T09:08:13;18.00;1.00
30865;DHT22;17574;49.418;11.038;2023-04-24T09:10:40;18.30;1.00
30865;DHT22;17574;49.418;11.038;2023-04-24T09:13:07;18.50;1.00
30865;DHT22;17574;49.418;11.038;2023-04-24T09:15:38;18.70;1.00
30865;DHT22;17574;49.418;11.038;2023-04-24T09:18:05;19.40;1.00
30865;DHT22;17574;49.418;11.038;2023-04-24T09:20:32;20.90;1.00
30865;DHT22;17574;49.418;11.038;2023-04-24T09:22:59;21.70;1.00
30865;DHT22;17574;49.418;11.038;2023-04-24T09:25:32;21.30;1.00
30865;DHT22;17574;49.418;11.038;2023-04-24T09:28:00;20.60;1.00
30865;DHT22;17574;49.418;11.038;2023-04-24T09:30:28;20.10;1.00
30865;DHT22;17574;49.418;11.038;2023-04-24T09:33:13;19.30;1.00
30865;DHT22;17574;49.418;11.038;2023-04-24T09:35:40;18.70;1.00
30865;DHT22;17574;49.418;11.038;2023-04-24T09:38:07;18.10;1.00
30865;DHT22;17574;49.418;11.038;2023-04-24T09:40:34;17.90;1.00
30865;DHT22;17574;49.418;11.038;2023-04-24T09:43:00;17.80;1.00
30865;DHT22;17574;49.418;11.038;2023-04-24T09:45:35;19.30;1.00
30865;DHT22;17574;49.418;11.038;2023-04-24T09:48:03;21.20;1.00
30865;DHT22;17574;49.418;11.038;2023-04-24T09:50:30;22.50;1.00
30865;DHT22;17574;49.418;11.038;2023-04-24T09:53:01;22.50;1.00
30865;DHT22;17574;49.418;11.038;2023-04-24T09:55:28;21.50;1.00
30865;DHT22;17574;49.418;11.038;2023-04-24T09:57:56;20.80;1.00
30865;DHT22;17574;49.418;11.038;2023-04-24T10:00:24;20.40;1.00
30865;DHT22;17574;49.418;11.038;2023-04-24T10:03:13;20.00;1.00
30865;DHT22;17574;49.418;11.038;2023-04-24T10:05:38;19.70;1.00
30865;DHT22;17574;49.418;11.038;2023-04-24T10:08:10;19.70;1.00
30865;DHT22;17574;49.418;11.038;2023-04-24T10:10:43;19.70;1.00
30865;DHT22;17574;49.418;11.038;2023-04-24T10:13:10;19.50;1.00
30865;DHT22;17574;49.418;11.038;2023-04-24T10:15:37;19.20;1.00
30865;DHT22;17574;49.418;11.038;2023-04-24T10:18:04;18.80;1.00
30865;DHT22;17574;49.418;11.038;2023-04-24T10:20:35;19.50;1.00
30865;DHT22;17574;49.418;11.038;2023-04-24T10:23:02;20.50;1.00
30865;DHT22;17574;49.418;11.038;2023-04-24T10:25:30;22.50;1.00
30865;DHT22;17574;49.418;11.038;2023-04-24T10:27:57;24.90;1.00
30865;DHT22;17574;49.418;11.038;2023-04-24T10:30:26;26.40;1.00
30865;DHT22;17574;49.418;11.038;2023-04-24T10:32:53;27.40;1.00
30865;DHT22;17574;49.418;11.038;2023-04-24T10:35:22;28.10;1.00
30865;DHT22;17574;49.418;11.038;2023-04-24T10:37:52;28.60;1.00
30865;DHT22;17574;49.418;11.038;2023-04-24T10:40:27;29.30;1.00
30865;DHT22;17574;49.418;11.038;2023-04-24T10:42:56;29.60;1.00
30865;DHT22;17574;49.418;11.038;2023-04-24T10:45:24;30.20;1.00
30865;DHT22;17574;49.418;11.038;2023-04-24T10:47:52;30.80;1.00
30865;DHT22;17574;49.418;11.038;2023-04-24T10:50:19;30.10;1.00
30865;DHT22;17574;49.418;11.038;2023-04-24T10:52:46;28.40;1.00
30865;DHT22;17574;49.418;11.038;2023-04-24T10:55:13;26.00;1.00
30865;DHT22;17574;49.418;11.038;2023-04-24T10:58:00;24.90;1.00
30865;DHT22;17574;49.418;11.038;2023-04-24T11:00:28;23.30;1.00
30865;DHT22;17574;49.418;11.038;2023-04-24T11:02:54;21.90;1.00
30865;DHT22;17574;49.418;11.038;2023-04-24T11:05:22;21.10;1.00
30865;DHT22;17574;49.418;11.038;2023-04-24T11:10:37;20.50;1.00
30865;DHT22;17574;49.418;11.038;2023-04-24T11:13:04;20.70;1.00
30865;DHT22;17574;49.418;11.038;2023-04-24T11:15:30;20.70;1.00
30865;DHT22;17574;49.418;11.038;2023-04-24T11:17:57;20.70;1.00
30865;DHT22;17574;49.418;11.038;2023-04-24T11:20:24;20.40;1.00
30865;DHT22;17574;49.418;11.038;2023-04-24T11:22:54;20.90;1.00
30865;DHT22;17574;49.418;11.038;2023-04-24T11:25:21;21.40;1.00
30865;DHT22;17574;49.418;11.038;2023-04-24T11:28:02;21.40;1.00
30865;DHT22;17574;49.418;11.038;2023-04-24T11:30:29;21.20;1.00
30865;DHT22;17574;49.418;11.038;2023-04-24T11:33:01;21.00;1.00
30865;DHT22;17574;49.418;11.038;2023-04-24T11:35:29;21.50;1.00
30865;DHT22;17574;49.418;11.038;2023-04-24T11:37:56;22.50;1.00
30865;DHT22;17574;49.418;11.038;2023-04-24T11:40:27;22.90;1.00
30865;DHT22;17574;49.418;11.038;2023-04-24T11:42:54;23.00;1.00
30865;DHT22;17574;49.418;11.038;2023-04-24T11:45:24;23.70;1.00
30865;DHT22;17574;49.418;11.038;2023-04-24T11:47:51;24.40;1.00
30865;DHT22;17574;49.418;11.038;2023-04-24T11:50:20;24.60;1.00
30865;DHT22;17574;49.418;11.038;2023-04-24T11:52:48;23.70;1.00
30865;DHT22;17574;49.418;11.038;2023-04-24T11:57:48;21.80;1.00
30865;DHT22;17574;49.418;11.038;2023-04-24T12:02:45;20.40;1.00
30865;DHT22;17574;49.418;11.038;2023-04-24T12:05:19;20.00;1.00
30865;DHT22;17574;49.418;11.038;2023-04-24T12:07:46;19.60;1.00
30865;DHT22;17574;49.418;11.038;2023-04-24T12:10:13;19.50;1.00
30865;DHT22;17574;49.418;11.038;2023-04-24T12:12:41;19.70;1.00
30865;DHT22;17574;49.418;11.038;2023-04-24T12:15:08;19.80;1.00
30865;DHT22;17574;49.418;11.038;2023-04-24T12:17:35;20.00;1.00
30865;DHT22;17574;49.418;11.038;2023-04-24T12:20:03;20.30;1.00
30865;DHT22;17574;49.418;11.038;2023-04-24T12:22:43;20.70;1.00
30865;DHT22;17574;49.418;11.038;2023-04-24T12:25:11;20.70;1.00
30865;DHT22;17574;49.418;11.038;2023-04-24T12:27:37;21.40;1.00
30865;DHT22;17574;49.418;11.038;2023-04-24T12:30:04;21.90;1.00
30865;DHT22;17574;49.418;11.038;2023-04-24T12:32:31;22.00;1.00
30865;DHT22;17574;49.418;11.038;2023-04-24T12:34:58;21.70;1.00
30865;DHT22;17574;49.418;11.038;2023-04-24T12:37:25;21.40;1.00
30865;DHT22;17574;49.418;11.038;2023-04-24T12:39:59;21.10;1.00
30865;DHT22;17574;49.418;11.038;2023-04-24T12:42:27;20.50;1.00
30865;DHT22;17574;49.418;11.038;2023-04-24T12:45:04;20.10;1.00
30865;DHT22;17574;49.418;11.038;2023-04-24T12:47:32;20.00;1.00
30865;DHT22;17574;49.418;11.038;2023-04-24T12:49:59;20.00;1.00
30865;DHT22;17574;49.418;11.038;2023-04-24T12:52:26;20.00;1.00
30865;DHT22;17574;49.418;11.038;2023-04-24T12:54:54;20.10;1.00
30865;DHT22;17574;49.418;11.038;2023-04-24T12:57:21;20.10;1.00
30865;DHT22;17574;49.418;11.038;2023-04-24T12:59:48;20.20;1.00
30865;DHT22;17574;49.418;11.038;2023-04-24T13:02:15;20.20;1.00
30865;DHT22;17574;49.418;11.038;2023-04-24T13:04:45;20.10;1.00
30865;DHT22;17574;49.418;11.038;2023-04-24T13:07:13;20.40;1.00
30865;DHT22;17574;49.418;11.038;2023-04-24T13:09:41;20.70;1.00
30865;DHT22;17574;49.418;11.038;2023-04-24T13:12:08;20.60;1.00
30865;DHT22;17574;49.418;11.038;2023-04-24T13:14:35;20.90;1.00
30865;DHT22;17574;49.418;11.038;2023-04-24T13:17:02;21.10;1.00
30865;DHT22;17574;49.418;11.038;2023-04-24T13:19:29;21.00;1.00
30865;DHT22;17574;49.418;11.038;2023-04-24T13:21:56;20.50;1.00
30865;DHT22;17574;49.418;11.038;2023-04-24T13:24:24;20.10;1.00
30865;DHT22;17574;49.418;11.038;2023-04-24T13:26:51;19.60;1.00
30865;DHT22;17574;49.418;11.038;2023-04-24T13:29:18;19.20;1.00
30865;DHT22;17574;49.418;11.038;2023-04-24T13:31:46;20.50;1.00
30865;DHT22;17574;49.418;11.038;2023-04-24T13:34:13;18.90;1.00
30865;DHT22;17574;49.418;11.038;2023-04-24T13:36:40;18.10;1.00
30865;DHT22;17574;49.418;11.038;2023-04-24T13:39:06;17.90;1.00
30865;DHT22;17574;49.418;11.038;2023-04-24T13:41:33;18.00;1.00
30865;DHT22;17574;49.418;11.038;2023-04-24T13:44:00;18.20;1.00
30865;DHT22;17574;49.418;11.038;2023-04-24T13:46:27;18.10;1.00
30865;DHT22;17574;49.418;11.038;2023-04-24T13:48:54;17.60;1.00
30865;DHT22;17574;49.418;11.038;2023-04-24T13:51:20;17.20;1.00
30865;DHT22;17574;49.418;11.038;2023-04-24T13:53:47;16.70;1.00
30865;DHT22;17574;49.418;11.038;2023-04-24T13:56:14;16.60;1.00
30865;DHT22;17574;49.418;11.038;2023-04-24T13:58:41;16.40;1.00
30865;DHT22;17574;49.418;11.038;2023-04-24T14:01:07;16.50;1.00
30865;DHT22;17574;49.418;11.038;2023-04-24T14:03:34;16.60;1.00
30865;DHT22;17574;49.418;11.038;2023-04-24T14:06:01;16.80;1.00
30865;DHT22;17574;49.418;11.038;2023-04-24T14:08:27;17.40;1.00
30865;DHT22;17574;49.418;11.038;2023-04-24T14:10:54;18.00;1.00
30865;DHT22;17574;49.418;11.038;2023-04-24T14:13:21;18.60;1.00
30865;DHT22;17574;49.418;11.038;2023-04-24T14:15:48;19.40;1.00
30865;DHT22;17574;49.418;11.038;2023-04-24T14:18:14;20.00;1.00
30865;DHT22;17574;49.418;11.038;2023-04-24T14:20:41;20.20;1.00
30865;DHT22;17574;49.418;11.038;2023-04-24T14:23:08;20.30;1.00
30865;DHT22;17574;49.418;11.038;2023-04-24T14:25:34;20.40;1.00
30865;DHT22;17574;49.418;11.038;2023-04-24T14:28:01;20.50;1.00
30865;DHT22;17574;49.418;11.038;2023-04-24T14:30:28;20.40;1.00
30865;DHT22;17574;49.418;11.038;2023-04-24T14:32:54;19.90;1.00
30865;DHT22;17574;49.418;11.038;2023-04-24T14:35:21;19.50;1.00
30865;DHT22;17574;49.418;11.038;2023-04-24T14:37:48;19.20;1.00
30865;DHT22;17574;49.418;11.038;2023-04-24T14:40:15;18.80;1.00
30865;DHT22;17574;49.418;11.038;2023-04-24T14:42:46;18.60;1.00
30865;DHT22;17574;49.418;11.038;2023-04-24T14:45:12;18.40;1.00
30865;DHT22;17574;49.418;11.038;2023-04-24T14:47:39;18.30;1.00
30865;DHT22;17574;49.418;11.038;2023-04-24T14:50:06;18.20;1.00
30865;DHT22;17574;49.418;11.038;2023-04-24T14:52:33;17.90;1.00
30865;DHT22;17574;49.418;11.038;2023-04-24T14:55:00;17.70;1.00
30865;DHT22;17574;49.418;11.038;2023-04-24T14:57:26;17.50;1.00
30865;DHT22;17574;49.418;11.038;2023-04-24T14:59:53;17.40;1.00
30865;DHT22;17574;49.418;11.038;2023-04-24T15:02:19;17.30;1.00
30865;DHT22;17574;49.418;11.038;2023-04-24T15:04:47;17.30;1.00
30865;DHT22;17574;49.418;11.038;2023-04-24T15:07:14;17.40;1.00
30865;DHT22;17574;49.418;11.038;2023-04-24T15:09:41;17.60;1.00
30865;DHT22;17574;49.418;11.038;2023-04-24T15:12:09;17.70;1.00
30865;DHT22;17574;49.418;11.038;2023-04-24T15:14:36;17.70;1.00
30865;DHT22;17574;49.418;11.038;2023-04-24T15:17:03;17.90;1.00
30865;DHT22;17574;49.418;11.038;2023-04-24T15:19:30;17.80;1.00
30865;DHT22;17574;49.418;11.038;2023-04-24T15:21:57;17.90;1.00
30865;DHT22;17574;49.418;11.038;2023-04-24T15:24:23;17.90;1.00
30865;DHT22;17574;49.418;11.038;2023-04-24T15:26:51;17.80;1.00
30865;DHT22;17574;49.418;11.038;2023-04-24T15:29:17;17.90;1.00
30865;DHT22;17574;49.418;11.038;2023-04-24T15:31:44;17.70;1.00
30865;DHT22;17574;49.418;11.038;2023-04-24T15:34:10;17.70;1.00
30865;DHT22;17574;49.418;11.038;2023-04-24T15:36:38;17.50;1.00
30865;DHT22;17574;49.418;11.038;2023-04-24T15:39:04;17.50;1.00
30865;DHT22;17574;49.418;11.038;2023-04-24T15:41:35;17.40;1.00
30865;DHT22;17574;49.418;11.038;2023-04-24T15:44:01;18.80;1.00
30865;DHT22;17574;49.418;11.038;2023-04-24T15:46:28;17.20;1.00
30865;DHT22;17574;49.418;11.038;2023-04-24T15:48:55;16.90;1.00
30865;DHT22;17574;49.418;11.038;2023-04-24T15:51:21;16.80;1.00
30865;DHT22;17574;49.418;11.038;2023-04-24T15:53:48;16.60;1.00
30865;DHT22;17574;49.418;11.038;2023-04-24T15:56:15;16.60;1.00
30865;DHT22;17574;49.418;11.038;2023-04-24T15:58:41;16.50;1.00
30865;DHT22;17574;49.418;11.038;2023-04-24T16:01:08;16.40;1.00
30865;DHT22;17574;49.418;11.038;2023-04-24T16:03:35;16.20;1.00
30865;DHT22;17574;49.418;11.038;2023-04-24T16:06:02;16.00;1.00
30865;DHT22;17574;49.418;11.038;2023-04-24T16:08:29;16.00;1.00
30865;DHT22;17574;49.418;11.038;2023-04-24T16:10:55;15.80;1.00
30865;DHT22;17574;49.418;11.038;2023-04-24T16:13:22;15.70;1.00
30865;DHT22;17574;49.418;11.038;2023-04-24T16:15:49;15.60;1.00
30865;DHT22;17574;49.418;11.038;2023-04-24T16:18:17;15.40;1.00
30865;DHT22;17574;49.418;11.038;2023-04-24T16:28:07;15.00;1.00
30865;DHT22;17574;49.418;11.038;2023-04-24T16:30:33;14.90;1.00
30865;DHT22;17574;49.418;11.038;2023-04-24T16:33:03;14.90;1.00
30865;DHT22;17574;49.418;11.038;2023-04-24T16:35:32;14.70;1.00
30865;DHT22;17574;49.418;11.038;2023-04-24T16:37:59;14.70;1.00
30865;DHT22;17574;49.418;11.038;2023-04-24T16:40:27;14.70;1.00
30865;DHT22;17574;49.418;11.038;2023-04-24T16:42:54;14.60;1.00
30865;DHT22;17574;49.418;11.038;2023-04-24T16:45:20;14.50;1.00
30865;DHT22;17574;49.418;11.038;2023-04-24T16:47:47;14.50;1.00
30865;DHT22;17574;49.418;11.038;2023-04-24T16:50:14;14.50;1.00
30865;DHT22;17574;49.418;11.038;2023-04-24T16:52:40;14.70;1.00
30865;DHT22;17574;49.418;11.038;2023-04-24T16:55:07;14.50;1.00
30865;DHT22;17574;49.418;11.038;2023-04-24T16:57:35;14.60;1.00
30865;DHT22;17574;49.418;11.038;2023-04-24T17:00:02;14.60;1.00
30865;DHT22;17574;49.418;11.038;2023-04-24T17:02:30;14.50;1.00
30865;DHT22;17574;49.418;11.038;2023-04-24T17:04:57;14.40;1.00
30865;DHT22;17574;49.418;11.038;2023-04-24T17:07:23;14.20;1.00
30865;DHT22;17574;49.418;11.038;2023-04-24T17:09:50;14.20;1.00
30865;DHT22;17574;49.418;11.038;2023-04-24T17:12:17;14.10;1.00
30865;DHT22;17574;49.418;11.038;2023-04-24T17:14:43;13.90;1.00
30865;DHT22;17574;49.418;11.038;2023-04-24T17:17:10;13.80;1.00
30865;DHT22;17574;49.418;11.038;2023-04-24T17:19:37;13.70;1.00
30865;DHT22;17574;49.418;11.038;2023-04-24T17:22:06;13.70;1.00
30865;DHT22;17574;49.418;11.038;2023-04-24T17:24:33;13.60;1.00
30865;DHT22;17574;49.418;11.038;2023-04-24T17:26:59;13.60;1.00
30865;DHT22;17574;49.418;11.038;2023-04-24T17:54:11;13.10;1.00
30865;DHT22;17574;49.418;11.038;2023-04-24T18:21:10;12.40;1.00
30865;DHT22;17574;49.418;11.038;2023-04-24T18:38:23;12.00;1.10
30865;DHT22;17574;49.418;11.038;2023-04-24T18:40:51;12.00;1.10
30865;DHT22;17574;49.418;11.038;2023-04-24T18:50:39;11.80;3.50
30865;DHT22;17574;49.418;11.038;2023-04-24T18:53:08;11.70;5.50
30865;DHT22;17574;49.418;11.038;2023-04-24T18:55:38;11.60;5.80
30865;DHT22;17574;49.418;11.038;2023-04-24T18:58:04;11.50;5.70
30865;DHT22;17574;49.418;11.038;2023-04-24T19:00:31;11.50;6.00
30865;DHT22;17574;49.418;11.038;2023-04-24T19:22:36;11.00;13.30
30865;DHT22;17574;49.418;11.038;2023-04-24T19:32:24;10.80;14.70
30865;DHT22;17574;49.418;11.038;2023-04-24T19:47:08;10.70;16.70
30865;DHT22;17574;49.418;11.038;2023-04-24T19:49:35;10.60;17.90
30865;DHT22;17574;49.418;11.038;2023-04-24T20:21:33;10.10;22.60
30865;DHT22;17574;49.418;11.038;2023-04-24T20:33:48;10.00;23.90
30865;DHT22;17574;49.418;11.038;2023-04-24T20:41:09;9.90;25.10
30865;DHT22;17574;49.418;11.038;2023-04-24T20:46:03;9.90;25.90
30865;DHT22;17574;49.418;11.038;2023-04-24T20:58:18;9.80;27.30
30865;DHT22;17574;49.418;11.038;2023-04-24T21:00:46;9.70;28.10
30865;DHT22;17574;49.418;11.038;2023-04-24T21:03:18;9.70;28.40
30865;DHT22;17574;49.418;11.038;2023-04-24T21:05:45;9.70;28.40
30865;DHT22;17574;49.418;11.038;2023-04-24T21:08:12;9.70;28.40
30865;DHT22;17574;49.418;11.038;2023-04-24T21:10:38;9.70;28.40
30865;DHT22;17574;49.418;11.038;2023-04-24T21:13:05;9.70;28.40
30865;DHT22;17574;49.418;11.038;2023-04-24T21:15:32;9.70;28.40
30865;DHT22;17574;49.418;11.038;2023-04-24T21:17:58;9.70;28.40
30865;DHT22;17574;49.418;11.038;2023-04-24T21:20:26;9.80;28.50
30865;DHT22;17574;49.418;11.038;2023-04-24T21:22:52;9.60;28.30
30865;DHT22;17574;49.418;11.038;2023-04-24T21:25:19;9.80;29.00
30865;DHT22;17574;49.418;11.038;2023-04-24T21:27:46;10.40;28.50
30865;DHT22;17574;49.418;11.038;2023-04-24T21:30:12;9.90;28.50
30865;DHT22;17574;49.418;11.038;2023-04-24T21:32:39;9.90;27.50
30865;DHT22;17574;49.418;11.038;2023-04-24T21:35:06;9.90;28.80
30865;DHT22;17574;49.418;11.038;2023-04-24T21:37:33;9.90;28.20
30865;DHT22;17574;49.418;11.038;2023-04-24T21:40:01;9.00;28.40
30865;DHT22;17574;49.418;11.038;2023-04-24T21:42:30;9.90;28.50
30865;DHT22;17574;49.418;11.038;2023-04-24T21:44:57;9.90;28.50
30865;DHT22;17574;49.418;11.038;2023-04-24T21:47:23;9.90;28.50
30865;DHT22;17574;49.418;11.038;2023-04-24T21:49:51;10.00;27.80
30865;DHT22;17574;49.418;11.038;2023-04-24T21:52:18;10.00;27.00
30865;DHT22;17574;49.418;11.038;2023-04-24T21:54:45;10.00;27.80
30865;DHT22;17574;49.418;11.038;2023-04-24T21:57:12;10.00;27.80
30865;DHT22;17574;49.418;11.038;2023-04-24T21:59:39;10.00;27.80
30865;DHT22;17574;49.418;11.038;2023-04-24T22:02:05;10.10;26.70
30865;DHT22;17574;49.418;11.038;2023-04-24T22:04:32;10.10;26.00
30865;DHT22;17574;49.418;11.038;2023-04-24T22:06:59;10.10;25.80
30865;DHT22;17574;49.418;11.038;2023-04-24T22:09:25;10.10;27.90
30865;DHT22;17574;49.418;11.038;2023-04-24T22:11:52;10.10;27.90
30865;DHT22;17574;49.418;11.038;2023-04-24T22:14:19;10.10;27.90
30865;DHT22;17574;49.418;11.038;2023-04-24T22:16:45;10.10;27.90
30865;DHT22;17574;49.418;11.038;2023-04-24T22:19:13;10.10;27.90
30865;DHT22;17574;49.418;11.038;2023-04-24T22:21:39;10.10;27.90
30865;DHT22;17574;49.418;11.038;2023-04-24T22:24:06;10.10;28.40
30865;DHT22;17574;49.418;11.038;2023-04-24T22:26:33;10.20;28.40
30865;DHT22;17574;49.418;11.038;2023-04-24T22:29:00;10.20;27.90
30865;DHT22;17574;49.418;11.038;2023-04-24T22:31:26;10.10;27.90
30865;DHT22;17574;49.418;11.038;2023-04-24T22:33:53;10.20;28.00
30865;DHT22;17574;49.418;11.038;2023-04-24T22:36:20;10.20;29.20
30865;DHT22;17574;49.418;11.038;2023-04-24T22:38:47;10.20;28.90
30865;DHT22;17574;49.418;11.038;2023-04-24T22:41:14;10.30;28.70
30865;DHT22;17574;49.418;11.038;2023-04-24T22:51:02;10.40;28.10
30865;DHT22;17574;49.418;11.038;2023-04-24T22:53:29;10.40;28.10
30865;DHT22;17574;49.418;11.038;2023-04-24T22:55:55;10.30;30.00
30865;DHT22;17574;49.418;11.038;2023-04-24T22:58:22;10.30;28.00
30865;DHT22;17574;49.418;11.038;2023-04-24T23:00:49;10.20;27.90
30865;DHT22;17574;49.418;11.038;2023-04-24T23:03:16;10.20;28.90
30865;DHT22;17574;49.418;11.038;2023-04-24T23:05:43;10.20;30.40
30865;DHT22;17574;49.418;11.038;2023-04-24T23:08:09;10.20;30.80
30865;DHT22;17574;49.418;11.038;2023-04-24T23:10:36;10.20;30.00
30865;DHT22;17574;49.418;11.038;2023-04-24T23:13:04;10.20;28.30
30865;DHT22;17574;49.418;11.038;2023-04-24T23:15:31;10.20;28.80
30865;DHT22;17574;49.418;11.038;2023-04-24T23:17:57;10.20;29.40
30865;DHT22;17574;49.418;11.038;2023-04-24T23:20:24;10.20;29.10
30865;DHT22;17574;49.418;11.038;2023-04-24T23:59:42;10.30;28.00
